sensor_id;sensor_type;location;lat;lon;timestamp;temperature;humidity
25616;DHT22;13482;48.234;13.006;2022-12-16T00:01:22;4.70;75.50
25616;DHT22;13482;48.234;13.006;2022-12-16T00:03:51;4.70;75.40
25616;DHT22;13482;48.234;13.006;2022-12-16T00:06:22;4.70;75.50
25616;DHT22;13482;48.234;13.006;2022-12-16T00:08:50;4.70;75.50
25616;DHT22;13482;48.234;13.006;2022-12-16T00:11:19;4.70;75.40
25616;DHT22;13482;48.234;13.006;2022-12-16T00:13:47;4.70;75.40
25616;DHT22;13482;48.234;13.006;2022-12-16T00:16:16;4.70;75.40
25616;DHT22;13482;48.234;13.006;2022-12-16T00:18:46;4.70;75.50
25616;DHT22;13482;48.234;13.006;2022-12-16T00:21:14;4.70;75.50
25616;DHT22;13482;48.234;13.006;2022-12-16T00:23:41;4.70;75.50
25616;DHT22;13482;48.234;13.006;2022-12-16T00:26:09;4.70;75.50
25616;DHT22;13482;48.234;13.006;2022-12-16T00:28:38;4.70;75.50
25616;DHT22;13482;48.234;13.006;2022-12-16T00:31:06;4.70;75.50
25616;DHT22;13482;48.234;13.006;2022-12-16T00:33:33;4.70;75.50
25616;DHT22;13482;48.234;13.006;2022-12-16T00:36:01;4.70;75.50
25616;DHT22;13482;48.234;13.006;2022-12-16T00:38:28;4.70;75.50
25616;DHT22;13482;48.234;13.006;2022-12-16T00:40:56;4.70;75.50
25616;DHT22;13482;48.234;13.006;2022-12-16T00:43:23;4.70;75.50
25616;DHT22;13482;48.234;13.006;2022-12-16T00:45:50;4.70;75.50
25616;DHT22;13482;48.234;13.006;2022-12-16T00:48:18;4.80;75.50
25616;DHT22;13482;48.234;13.006;2022-12-16T00:50:51;4.80;75.50
25616;DHT22;13482;48.234;13.006;2022-12-16T00:53:22;4.80;75.50
25616;DHT22;13482;48.234;13.006;2022-12-16T00:55:54;4.80;75.50
25616;DHT22;13482;48.234;13.006;2022-12-16T00:58:36;4.80;75.50
25616;DHT22;13482;48.234;13.006;2022-12-16T01:01:04;4.80;75.40
25616;DHT22;13482;48.234;13.006;2022-12-16T01:03:32;4.80;75.40
25616;DHT22;13482;48.234;13.006;2022-12-16T01:06:07;4.80;75.40
25616;DHT22;13482;48.234;13.006;2022-12-16T01:08:38;4.80;75.40
25616;DHT22;13482;48.234;13.006;2022-12-16T01:11:06;4.80;75.40
25616;DHT22;13482;48.234;13.006;2022-12-16T01:13:35;4.80;75.40
25616;DHT22;13482;48.234;13.006;2022-12-16T01:16:03;4.80;75.40
25616;DHT22;13482;48.234;13.006;2022-12-16T01:18:30;4.80;75.50
25616;DHT22;13482;48.234;13.006;2022-12-16T01:21:05;4.80;75.40
25616;DHT22;13482;48.234;13.006;2022-12-16T01:23:34;4.80;75.50
25616;DHT22;13482;48.234;13.006;2022-12-16T01:26:02;4.80;75.40
25616;DHT22;13482;48.234;13.006;2022-12-16T01:28:29;4.80;75.40
25616;DHT22;13482;48.234;13.006;2022-12-16T01:30:58;4.80;75.40
25616;DHT22;13482;48.234;13.006;2022-12-16T01:33:29;4.80;75.40
25616;DHT22;13482;48.234;13.006;2022-12-16T01:36:05;4.80;75.40
25616;DHT22;13482;48.234;13.006;2022-12-16T01:38:34;4.90;75.40
25616;DHT22;13482;48.234;13.006;2022-12-16T01:41:03;4.80;75.30
25616;DHT22;13482;48.234;13.006;2022-12-16T01:43:33;4.80;75.40
25616;DHT22;13482;48.234;13.006;2022-12-16T01:53:59;4.90;75.30
25616;DHT22;13482;48.234;13.006;2022-12-16T01:56:31;4.80;75.30
25616;DHT22;13482;48.234;13.006;2022-12-16T01:58:59;4.80;75.40
25616;DHT22;13482;48.234;13.006;2022-12-16T02:01:27;4.80;75.40
25616;DHT22;13482;48.234;13.006;2022-12-16T02:03:57;4.80;75.50
25616;DHT22;13482;48.234;13.006;2022-12-16T02:06:29;4.90;75.50
25616;DHT22;13482;48.234;13.006;2022-12-16T02:09:02;4.90;75.50
25616;DHT22;13482;48.234;13.006;2022-12-16T02:14:55;4.90;75.60
25616;DHT22;13482;48.234;13.006;2022-12-16T02:27:55;4.90;75.60
25616;DHT22;13482;48.234;13.006;2022-12-16T02:39:22;4.90;75.40
25616;DHT22;13482;48.234;13.006;2022-12-16T02:42:14;4.90;75.30
25616;DHT22;13482;48.234;13.006;2022-12-16T02:45:11;4.90;75.40
25616;DHT22;13482;48.234;13.006;2022-12-16T02:47:41;4.90;75.40
25616;DHT22;13482;48.234;13.006;2022-12-16T02:50:27;4.90;75.30
25616;DHT22;13482;48.234;13.006;2022-12-16T02:52:59;4.90;75.40
25616;DHT22;13482;48.234;13.006;2022-12-16T02:58:15;4.90;75.50
25616;DHT22;13482;48.234;13.006;2022-12-16T03:06:37;4.90;75.50
25616;DHT22;13482;48.234;13.006;2022-12-16T03:09:07;4.90;75.40
25616;DHT22;13482;48.234;13.006;2022-12-16T03:11:37;4.90;75.40
25616;DHT22;13482;48.234;13.006;2022-12-16T03:14:07;4.90;75.50
25616;DHT22;13482;48.234;13.006;2022-12-16T03:16:36;4.90;75.50
25616;DHT22;13482;48.234;13.006;2022-12-16T03:19:06;4.90;75.50
25616;DHT22;13482;48.234;13.006;2022-12-16T03:21:54;4.90;75.50
25616;DHT22;13482;48.234;13.006;2022-12-16T03:24:25;4.90;75.50
25616;DHT22;13482;48.234;13.006;2022-12-16T03:30:14;4.90;75.50
25616;DHT22;13482;48.234;13.006;2022-12-16T03:35:19;4.90;75.40
25616;DHT22;13482;48.234;13.006;2022-12-16T03:37:53;4.90;75.40
25616;DHT22;13482;48.234;13.006;2022-12-16T03:40:23;4.90;75.40
25616;DHT22;13482;48.234;13.006;2022-12-16T03:42:52;4.90;75.40
25616;DHT22;13482;48.234;13.006;2022-12-16T03:45:28;4.90;75.50
25616;DHT22;13482;48.234;13.006;2022-12-16T03:47:59;4.90;75.50
25616;DHT22;13482;48.234;13.006;2022-12-16T03:50:32;4.90;75.50
25616;DHT22;13482;48.234;13.006;2022-12-16T03:53:01;4.90;75.50
25616;DHT22;13482;48.234;13.006;2022-12-16T03:55:28;4.90;75.50
25616;DHT22;13482;48.234;13.006;2022-12-16T03:57:56;4.90;75.50
25616;DHT22;13482;48.234;13.006;2022-12-16T04:00:23;4.90;75.50
25616;DHT22;13482;48.234;13.006;2022-12-16T04:02:51;4.90;75.50
25616;DHT22;13482;48.234;13.006;2022-12-16T04:05:19;4.90;75.50
25616;DHT22;13482;48.234;13.006;2022-12-16T04:07:46;4.90;75.50
25616;DHT22;13482;48.234;13.006;2022-12-16T04:10:13;4.90;75.50
25616;DHT22;13482;48.234;13.006;2022-12-16T04:12:41;4.90;75.50
25616;DHT22;13482;48.234;13.006;2022-12-16T04:15:26;4.90;75.50
25616;DHT22;13482;48.234;13.006;2022-12-16T04:18:16;4.90;75.50
25616;DHT22;13482;48.234;13.006;2022-12-16T04:21:03;4.90;75.50
25616;DHT22;13482;48.234;13.006;2022-12-16T04:23:54;4.90;75.40
25616;DHT22;13482;48.234;13.006;2022-12-16T04:26:41;4.90;75.40
25616;DHT22;13482;48.234;13.006;2022-12-16T04:29:27;4.90;75.40
25616;DHT22;13482;48.234;13.006;2022-12-16T04:31:55;4.90;75.40
25616;DHT22;13482;48.234;13.006;2022-12-16T04:34:22;4.80;75.50
25616;DHT22;13482;48.234;13.006;2022-12-16T04:36:55;4.80;75.50
25616;DHT22;13482;48.234;13.006;2022-12-16T04:39:42;4.80;75.50
25616;DHT22;13482;48.234;13.006;2022-12-16T04:42:28;4.80;75.50
25616;DHT22;13482;48.234;13.006;2022-12-16T04:45:14;4.80;75.50
25616;DHT22;13482;48.234;13.006;2022-12-16T04:48:01;4.80;75.50
25616;DHT22;13482;48.234;13.006;2022-12-16T04:50:47;4.80;75.50
25616;DHT22;13482;48.234;13.006;2022-12-16T04:53:33;4.80;75.50
25616;DHT22;13482;48.234;13.006;2022-12-16T04:56:18;4.80;75.50
25616;DHT22;13482;48.234;13.006;2022-12-16T04:59:04;4.80;75.60
25616;DHT22;13482;48.234;13.006;2022-12-16T05:01:50;4.80;75.60
25616;DHT22;13482;48.234;13.006;2022-12-16T05:04:36;4.80;75.60
25616;DHT22;13482;48.234;13.006;2022-12-16T05:07:22;4.80;75.60
25616;DHT22;13482;48.234;13.006;2022-12-16T05:10:08;4.80;75.60
25616;DHT22;13482;48.234;13.006;2022-12-16T05:12:54;4.80;75.60
25616;DHT22;13482;48.234;13.006;2022-12-16T05:15:40;4.80;75.60
25616;DHT22;13482;48.234;13.006;2022-12-16T05:18:26;4.80;75.70
25616;DHT22;13482;48.234;13.006;2022-12-16T05:21:11;4.80;75.70
25616;DHT22;13482;48.234;13.006;2022-12-16T05:23:57;4.80;75.60
25616;DHT22;13482;48.234;13.006;2022-12-16T05:26:43;4.80;75.70
25616;DHT22;13482;48.234;13.006;2022-12-16T05:29:29;4.80;75.70
25616;DHT22;13482;48.234;13.006;2022-12-16T05:32:15;4.80;75.70
25616;DHT22;13482;48.234;13.006;2022-12-16T05:35:00;4.80;75.70
25616;DHT22;13482;48.234;13.006;2022-12-16T05:37:46;4.80;75.70
25616;DHT22;13482;48.234;13.006;2022-12-16T05:40:32;4.90;75.70
25616;DHT22;13482;48.234;13.006;2022-12-16T05:43:18;4.90;75.70
25616;DHT22;13482;48.234;13.006;2022-12-16T05:46:04;4.90;75.70
25616;DHT22;13482;48.234;13.006;2022-12-16T05:48:50;4.90;75.70
25616;DHT22;13482;48.234;13.006;2022-12-16T05:51:36;4.90;75.70
25616;DHT22;13482;48.234;13.006;2022-12-16T05:54:22;4.90;75.60
25616;DHT22;13482;48.234;13.006;2022-12-16T05:57:08;4.90;75.60
25616;DHT22;13482;48.234;13.006;2022-12-16T05:59:54;4.90;75.60
25616;DHT22;13482;48.234;13.006;2022-12-16T06:02:40;4.90;75.60
25616;DHT22;13482;48.234;13.006;2022-12-16T06:05:25;4.90;75.60
25616;DHT22;13482;48.234;13.006;2022-12-16T06:08:11;4.90;75.60
25616;DHT22;13482;48.234;13.006;2022-12-16T06:10:57;4.90;75.60
25616;DHT22;13482;48.234;13.006;2022-12-16T06:13:43;4.90;75.60
25616;DHT22;13482;48.234;13.006;2022-12-16T06:16:36;4.90;75.60
25616;DHT22;13482;48.234;13.006;2022-12-16T06:19:22;4.90;75.60
25616;DHT22;13482;48.234;13.006;2022-12-16T06:22:08;4.90;75.60
25616;DHT22;13482;48.234;13.006;2022-12-16T06:24:54;4.90;75.60
25616;DHT22;13482;48.234;13.006;2022-12-16T06:27:40;4.90;75.60
25616;DHT22;13482;48.234;13.006;2022-12-16T06:30:26;4.90;75.60
25616;DHT22;13482;48.234;13.006;2022-12-16T06:33:12;4.90;75.60
25616;DHT22;13482;48.234;13.006;2022-12-16T06:35:58;4.90;75.60
25616;DHT22;13482;48.234;13.006;2022-12-16T06:38:44;4.90;75.60
25616;DHT22;13482;48.234;13.006;2022-12-16T06:41:31;4.90;75.60
25616;DHT22;13482;48.234;13.006;2022-12-16T06:44:17;4.90;75.60
25616;DHT22;13482;48.234;13.006;2022-12-16T06:47:03;4.90;75.60
25616;DHT22;13482;48.234;13.006;2022-12-16T06:49:49;4.90;75.60
25616;DHT22;13482;48.234;13.006;2022-12-16T06:52:34;4.90;75.60
25616;DHT22;13482;48.234;13.006;2022-12-16T06:55:20;4.90;75.60
25616;DHT22;13482;48.234;13.006;2022-12-16T06:58:06;4.90;75.60
25616;DHT22;13482;48.234;13.006;2022-12-16T07:00:52;4.90;75.60
25616;DHT22;13482;48.234;13.006;2022-12-16T07:03:38;4.90;75.70
25616;DHT22;13482;48.234;13.006;2022-12-16T07:06:24;4.80;75.70
25616;DHT22;13482;48.234;13.006;2022-12-16T07:09:10;4.80;75.80
25616;DHT22;13482;48.234;13.006;2022-12-16T07:11:55;4.80;75.80
25616;DHT22;13482;48.234;13.006;2022-12-16T07:14:41;4.80;75.80
25616;DHT22;13482;48.234;13.006;2022-12-16T07:17:27;4.90;75.80
25616;DHT22;13482;48.234;13.006;2022-12-16T07:20:12;4.90;75.80
25616;DHT22;13482;48.234;13.006;2022-12-16T07:22:58;4.90;75.80
25616;DHT22;13482;48.234;13.006;2022-12-16T07:25:56;4.90;75.80
25616;DHT22;13482;48.234;13.006;2022-12-16T07:28:42;4.90;75.80
25616;DHT22;13482;48.234;13.006;2022-12-16T07:31:28;4.90;75.90
25616;DHT22;13482;48.234;13.006;2022-12-16T07:34:14;4.90;75.90
25616;DHT22;13482;48.234;13.006;2022-12-16T07:37:07;4.90;75.90
25616;DHT22;13482;48.234;13.006;2022-12-16T07:39:52;4.90;75.90
25616;DHT22;13482;48.234;13.006;2022-12-16T07:42:41;4.90;76.00
25616;DHT22;13482;48.234;13.006;2022-12-16T07:45:26;5.00;76.00
25616;DHT22;13482;48.234;13.006;2022-12-16T07:48:12;5.00;75.90
25616;DHT22;13482;48.234;13.006;2022-12-16T07:50:58;5.00;75.90
25616;DHT22;13482;48.234;13.006;2022-12-16T07:53:44;5.00;75.90
25616;DHT22;13482;48.234;13.006;2022-12-16T07:56:30;5.00;75.90
25616;DHT22;13482;48.234;13.006;2022-12-16T07:59:15;5.00;75.90
25616;DHT22;13482;48.234;13.006;2022-12-16T08:02:01;5.00;75.90
25616;DHT22;13482;48.234;13.006;2022-12-16T08:04:48;5.00;75.90
25616;DHT22;13482;48.234;13.006;2022-12-16T08:07:34;5.00;76.00
25616;DHT22;13482;48.234;13.006;2022-12-16T08:10:25;5.00;76.00
25616;DHT22;13482;48.234;13.006;2022-12-16T08:13:11;5.10;75.80
25616;DHT22;13482;48.234;13.006;2022-12-16T08:15:56;5.10;75.90
25616;DHT22;13482;48.234;13.006;2022-12-16T08:18:42;5.10;75.90
25616;DHT22;13482;48.234;13.006;2022-12-16T08:21:36;5.10;75.90
25616;DHT22;13482;48.234;13.006;2022-12-16T08:24:22;5.10;75.90
25616;DHT22;13482;48.234;13.006;2022-12-16T08:27:10;5.10;75.90
25616;DHT22;13482;48.234;13.006;2022-12-16T08:29:55;5.10;76.10
25616;DHT22;13482;48.234;13.006;2022-12-16T08:32:41;5.10;76.10
25616;DHT22;13482;48.234;13.006;2022-12-16T08:35:40;5.10;76.10
25616;DHT22;13482;48.234;13.006;2022-12-16T08:38:26;5.20;75.90
25616;DHT22;13482;48.234;13.006;2022-12-16T08:41:12;5.20;75.90
25616;DHT22;13482;48.234;13.006;2022-12-16T08:43:58;5.20;75.80
25616;DHT22;13482;48.234;13.006;2022-12-16T08:46:43;5.20;75.90
25616;DHT22;13482;48.234;13.006;2022-12-16T08:49:29;5.20;75.90
25616;DHT22;13482;48.234;13.006;2022-12-16T08:52:15;5.20;76.10
25616;DHT22;13482;48.234;13.006;2022-12-16T08:55:01;5.20;76.10
25616;DHT22;13482;48.234;13.006;2022-12-16T08:57:53;5.20;76.20
25616;DHT22;13482;48.234;13.006;2022-12-16T09:00:40;5.20;76.30
25616;DHT22;13482;48.234;13.006;2022-12-16T09:03:33;5.30;76.10
25616;DHT22;13482;48.234;13.006;2022-12-16T09:06:19;5.30;76.10
25616;DHT22;13482;48.234;13.006;2022-12-16T09:09:07;5.30;76.20
25616;DHT22;13482;48.234;13.006;2022-12-16T09:11:53;5.30;76.30
25616;DHT22;13482;48.234;13.006;2022-12-16T09:14:59;5.30;76.30
25616;DHT22;13482;48.234;13.006;2022-12-16T09:17:44;5.40;76.40
25616;DHT22;13482;48.234;13.006;2022-12-16T09:20:30;5.40;76.40
25616;DHT22;13482;48.234;13.006;2022-12-16T09:23:16;5.40;76.50
25616;DHT22;13482;48.234;13.006;2022-12-16T09:26:02;5.50;76.60
25616;DHT22;13482;48.234;13.006;2022-12-16T09:28:48;5.50;76.60
25616;DHT22;13482;48.234;13.006;2022-12-16T09:31:34;5.50;76.50
25616;DHT22;13482;48.234;13.006;2022-12-16T09:34:21;5.60;76.40
25616;DHT22;13482;48.234;13.006;2022-12-16T09:37:07;5.60;76.40
25616;DHT22;13482;48.234;13.006;2022-12-16T09:39:54;5.60;76.40
25616;DHT22;13482;48.234;13.006;2022-12-16T09:52:15;5.70;75.90
25616;DHT22;13482;48.234;13.006;2022-12-16T09:55:07;5.70;75.80
25616;DHT22;13482;48.234;13.006;2022-12-16T09:58:02;5.70;75.70
25616;DHT22;13482;48.234;13.006;2022-12-16T10:00:48;5.70;75.60
25616;DHT22;13482;48.234;13.006;2022-12-16T10:03:37;5.70;75.60
25616;DHT22;13482;48.234;13.006;2022-12-16T10:06:38;5.70;75.70
25616;DHT22;13482;48.234;13.006;2022-12-16T10:09:37;5.60;75.60
25616;DHT22;13482;48.234;13.006;2022-12-16T10:13:08;5.60;75.50
25616;DHT22;13482;48.234;13.006;2022-12-16T10:23:14;5.50;75.50
25616;DHT22;13482;48.234;13.006;2022-12-16T10:29:19;5.40;75.60
25616;DHT22;13482;48.234;13.006;2022-12-16T10:38:40;5.20;75.60
25616;DHT22;13482;48.234;13.006;2022-12-16T10:41:36;5.20;75.50
25616;DHT22;13482;48.234;13.006;2022-12-16T10:47:39;5.10;75.60
25616;DHT22;13482;48.234;13.006;2022-12-16T10:50:25;5.00;75.70
25616;DHT22;13482;48.234;13.006;2022-12-16T10:53:14;5.00;75.60
25616;DHT22;13482;48.234;13.006;2022-12-16T10:59:37;4.90;75.80
25616;DHT22;13482;48.234;13.006;2022-12-16T11:02:26;4.90;75.80
25616;DHT22;13482;48.234;13.006;2022-12-16T11:08:33;4.70;75.90
25616;DHT22;13482;48.234;13.006;2022-12-16T11:11:29;4.70;76.10
25616;DHT22;13482;48.234;13.006;2022-12-16T11:14:29;4.70;76.10
25616;DHT22;13482;48.234;13.006;2022-12-16T11:17:35;4.60;76.10
25616;DHT22;13482;48.234;13.006;2022-12-16T11:20:24;4.60;76.10
25616;DHT22;13482;48.234;13.006;2022-12-16T11:23:24;4.60;76.20
25616;DHT22;13482;48.234;13.006;2022-12-16T11:29:04;4.60;76.30
25616;DHT22;13482;48.234;13.006;2022-12-16T11:32:21;4.60;76.30
25616;DHT22;13482;48.234;13.006;2022-12-16T11:35:16;4.60;76.20
25616;DHT22;13482;48.234;13.006;2022-12-16T11:38:07;4.60;76.20
25616;DHT22;13482;48.234;13.006;2022-12-16T11:40:58;4.60;76.20
25616;DHT22;13482;48.234;13.006;2022-12-16T11:43:48;4.50;76.20
25616;DHT22;13482;48.234;13.006;2022-12-16T11:46:35;4.60;76.20
25616;DHT22;13482;48.234;13.006;2022-12-16T11:49:32;4.50;76.20
25616;DHT22;13482;48.234;13.006;2022-12-16T11:52:20;4.50;76.20
25616;DHT22;13482;48.234;13.006;2022-12-16T11:55:22;4.50;76.20
25616;DHT22;13482;48.234;13.006;2022-12-16T12:01:34;4.50;76.10
25616;DHT22;13482;48.234;13.006;2022-12-16T12:04:27;4.50;75.70
25616;DHT22;13482;48.234;13.006;2022-12-16T12:23:15;4.30;75.60
25616;DHT22;13482;48.234;13.006;2022-12-16T12:26:13;4.20;75.70
25616;DHT22;13482;48.234;13.006;2022-12-16T12:48:49;4.10;76.00
25616;DHT22;13482;48.234;13.006;2022-12-16T12:52:01;4.10;76.00
25616;DHT22;13482;48.234;13.006;2022-12-16T12:58:05;4.00;76.10
25616;DHT22;13482;48.234;13.006;2022-12-16T13:00:54;4.00;76.20
25616;DHT22;13482;48.234;13.006;2022-12-16T13:03:48;4.10;76.30
25616;DHT22;13482;48.234;13.006;2022-12-16T13:06:36;4.10;76.30
25616;DHT22;13482;48.234;13.006;2022-12-16T13:09:33;4.10;76.30
25616;DHT22;13482;48.234;13.006;2022-12-16T13:18:29;4.10;76.00
25616;DHT22;13482;48.234;13.006;2022-12-16T13:27:15;4.10;75.90
25616;DHT22;13482;48.234;13.006;2022-12-16T13:30:18;4.10;75.90
25616;DHT22;13482;48.234;13.006;2022-12-16T13:33:26;4.10;76.00
25616;DHT22;13482;48.234;13.006;2022-12-16T13:36:16;4.10;76.00
25616;DHT22;13482;48.234;13.006;2022-12-16T13:39:25;4.10;76.00
25616;DHT22;13482;48.234;13.006;2022-12-16T13:42:31;4.10;76.10
25616;DHT22;13482;48.234;13.006;2022-12-16T13:48:33;4.10;75.90
25616;DHT22;13482;48.234;13.006;2022-12-16T13:51:54;4.10;75.80
25616;DHT22;13482;48.234;13.006;2022-12-16T13:54:51;4.10;75.90
25616;DHT22;13482;48.234;13.006;2022-12-16T13:57:56;4.00;75.80
25616;DHT22;13482;48.234;13.006;2022-12-16T14:00:55;4.00;75.80
25616;DHT22;13482;48.234;13.006;2022-12-16T14:03:47;4.00;75.80
25616;DHT22;13482;48.234;13.006;2022-12-16T14:06:36;3.90;75.90
25616;DHT22;13482;48.234;13.006;2022-12-16T14:09:34;3.90;76.10
25616;DHT22;13482;48.234;13.006;2022-12-16T14:19:20;3.80;75.70
25616;DHT22;13482;48.234;13.006;2022-12-16T14:25:31;3.80;75.80
25616;DHT22;13482;48.234;13.006;2022-12-16T14:31:26;3.70;76.00
25616;DHT22;13482;48.234;13.006;2022-12-16T14:37:13;3.60;76.00
25616;DHT22;13482;48.234;13.006;2022-12-16T14:40:03;3.60;75.80
25616;DHT22;13482;48.234;13.006;2022-12-16T14:42:59;3.60;75.80
25616;DHT22;13482;48.234;13.006;2022-12-16T14:45:48;3.60;75.80
25616;DHT22;13482;48.234;13.006;2022-12-16T14:48:37;3.60;75.80
25616;DHT22;13482;48.234;13.006;2022-12-16T14:51:43;3.50;75.90
25616;DHT22;13482;48.234;13.006;2022-12-16T14:54:37;3.50;75.90
25616;DHT22;13482;48.234;13.006;2022-12-16T14:57:26;3.50;75.90
25616;DHT22;13482;48.234;13.006;2022-12-16T15:06:35;3.50;75.90
25616;DHT22;13482;48.234;13.006;2022-12-16T15:09:42;3.50;75.90
25616;DHT22;13482;48.234;13.006;2022-12-16T15:12:42;3.50;76.00
25616;DHT22;13482;48.234;13.006;2022-12-16T15:15:40;3.40;76.00
25616;DHT22;13482;48.234;13.006;2022-12-16T15:18:37;3.40;76.00
25616;DHT22;13482;48.234;13.006;2022-12-16T15:21:24;3.40;76.00
25616;DHT22;13482;48.234;13.006;2022-12-16T15:24:16;3.40;76.00
25616;DHT22;13482;48.234;13.006;2022-12-16T15:27:33;3.40;76.00
25616;DHT22;13482;48.234;13.006;2022-12-16T15:30:40;3.30;76.10
25616;DHT22;13482;48.234;13.006;2022-12-16T15:33:35;3.30;76.00
25616;DHT22;13482;48.234;13.006;2022-12-16T15:36:27;3.30;75.90
25616;DHT22;13482;48.234;13.006;2022-12-16T15:42:19;3.10;76.10
25616;DHT22;13482;48.234;13.006;2022-12-16T15:45:26;3.10;76.10
25616;DHT22;13482;48.234;13.006;2022-12-16T15:48:31;3.10;76.10
25616;DHT22;13482;48.234;13.006;2022-12-16T15:51:42;3.00;76.20
25616;DHT22;13482;48.234;13.006;2022-12-16T15:54:29;3.00;76.30
25616;DHT22;13482;48.234;13.006;2022-12-16T15:57:27;3.00;76.40
25616;DHT22;13482;48.234;13.006;2022-12-16T16:00:42;3.00;76.40
25616;DHT22;13482;48.234;13.006;2022-12-16T16:03:50;2.90;76.50
25616;DHT22;13482;48.234;13.006;2022-12-16T16:06:38;2.90;76.40
25616;DHT22;13482;48.234;13.006;2022-12-16T16:09:28;2.90;76.40
25616;DHT22;13482;48.234;13.006;2022-12-16T16:12:17;2.90;76.40
25616;DHT22;13482;48.234;13.006;2022-12-16T16:15:05;2.90;76.40
25616;DHT22;13482;48.234;13.006;2022-12-16T16:18:02;2.90;76.50
25616;DHT22;13482;48.234;13.006;2022-12-16T16:20:50;2.90;76.40
25616;DHT22;13482;48.234;13.006;2022-12-16T16:23:36;2.90;76.50
25616;DHT22;13482;48.234;13.006;2022-12-16T16:26:26;2.90;76.50
25616;DHT22;13482;48.234;13.006;2022-12-16T16:29:12;2.90;76.40
25616;DHT22;13482;48.234;13.006;2022-12-16T16:31:58;2.90;76.50
25616;DHT22;13482;48.234;13.006;2022-12-16T16:34:43;2.90;76.50
25616;DHT22;13482;48.234;13.006;2022-12-16T16:37:29;2.90;76.50
25616;DHT22;13482;48.234;13.006;2022-12-16T16:40:30;2.90;76.50
25616;DHT22;13482;48.234;13.006;2022-12-16T16:43:18;2.90;76.50
25616;DHT22;13482;48.234;13.006;2022-12-16T16:52:17;2.90;76.40
25616;DHT22;13482;48.234;13.006;2022-12-16T16:55:04;2.90;76.40
25616;DHT22;13482;48.234;13.006;2022-12-16T16:57:50;2.90;76.30
25616;DHT22;13482;48.234;13.006;2022-12-16T17:00:36;2.90;76.30
25616;DHT22;13482;48.234;13.006;2022-12-16T17:03:22;2.80;76.30
25616;DHT22;13482;48.234;13.006;2022-12-16T17:06:09;2.80;76.30
25616;DHT22;13482;48.234;13.006;2022-12-16T17:08:55;2.80;76.30
25616;DHT22;13482;48.234;13.006;2022-12-16T17:11:41;2.80;76.30
25616;DHT22;13482;48.234;13.006;2022-12-16T17:14:26;2.80;76.40
25616;DHT22;13482;48.234;13.006;2022-12-16T17:17:12;2.80;76.40
25616;DHT22;13482;48.234;13.006;2022-12-16T17:19:58;2.70;76.40
25616;DHT22;13482;48.234;13.006;2022-12-16T17:22:44;2.80;76.40
25616;DHT22;13482;48.234;13.006;2022-12-16T17:25:29;2.80;76.60
25616;DHT22;13482;48.234;13.006;2022-12-16T17:28:15;2.80;76.60
25616;DHT22;13482;48.234;13.006;2022-12-16T17:31:01;2.80;76.60
25616;DHT22;13482;48.234;13.006;2022-12-16T17:33:47;2.80;76.50
25616;DHT22;13482;48.234;13.006;2022-12-16T17:36:32;2.80;76.50
25616;DHT22;13482;48.234;13.006;2022-12-16T17:39:18;2.80;76.60
25616;DHT22;13482;48.234;13.006;2022-12-16T17:42:04;2.80;76.50
25616;DHT22;13482;48.234;13.006;2022-12-16T17:44:50;2.90;76.50
25616;DHT22;13482;48.234;13.006;2022-12-16T17:47:35;2.90;76.50
25616;DHT22;13482;48.234;13.006;2022-12-16T17:50:21;2.90;76.60
25616;DHT22;13482;48.234;13.006;2022-12-16T17:53:17;2.80;76.60
25616;DHT22;13482;48.234;13.006;2022-12-16T17:56:04;2.90;76.60
25616;DHT22;13482;48.234;13.006;2022-12-16T17:58:49;2.80;76.50
25616;DHT22;13482;48.234;13.006;2022-12-16T18:01:36;2.80;76.50
25616;DHT22;13482;48.234;13.006;2022-12-16T18:04:22;2.80;76.50
25616;DHT22;13482;48.234;13.006;2022-12-16T18:07:08;2.80;76.60
25616;DHT22;13482;48.234;13.006;2022-12-16T18:09:54;2.80;76.70
25616;DHT22;13482;48.234;13.006;2022-12-16T18:12:40;2.80;76.70
25616;DHT22;13482;48.234;13.006;2022-12-16T18:15:26;2.80;76.60
25616;DHT22;13482;48.234;13.006;2022-12-16T18:18:12;2.80;76.60
25616;DHT22;13482;48.234;13.006;2022-12-16T18:21:08;2.80;76.70
25616;DHT22;13482;48.234;13.006;2022-12-16T18:23:57;2.80;76.70
25616;DHT22;13482;48.234;13.006;2022-12-16T18:26:43;2.80;76.70
25616;DHT22;13482;48.234;13.006;2022-12-16T18:29:28;2.80;76.60
25616;DHT22;13482;48.234;13.006;2022-12-16T18:32:14;2.80;76.60
25616;DHT22;13482;48.234;13.006;2022-12-16T18:35:01;2.80;76.60
25616;DHT22;13482;48.234;13.006;2022-12-16T18:37:47;2.80;76.70
25616;DHT22;13482;48.234;13.006;2022-12-16T18:40:38;2.80;76.60
25616;DHT22;13482;48.234;13.006;2022-12-16T18:43:24;2.80;76.60
25616;DHT22;13482;48.234;13.006;2022-12-16T18:46:10;2.80;76.60
25616;DHT22;13482;48.234;13.006;2022-12-16T18:48:56;2.80;76.70
25616;DHT22;13482;48.234;13.006;2022-12-16T18:51:41;2.80;76.60
25616;DHT22;13482;48.234;13.006;2022-12-16T18:54:27;2.80;76.60
25616;DHT22;13482;48.234;13.006;2022-12-16T18:57:13;2.80;76.60
25616;DHT22;13482;48.234;13.006;2022-12-16T19:00:05;2.80;76.60
25616;DHT22;13482;48.234;13.006;2022-12-16T19:02:52;2.80;76.60
25616;DHT22;13482;48.234;13.006;2022-12-16T19:05:37;2.70;76.50
25616;DHT22;13482;48.234;13.006;2022-12-16T19:08:23;2.70;76.50
25616;DHT22;13482;48.234;13.006;2022-12-16T19:11:09;2.70;76.50
25616;DHT22;13482;48.234;13.006;2022-12-16T19:13:55;2.70;76.60
25616;DHT22;13482;48.234;13.006;2022-12-16T19:16:41;2.70;76.60
25616;DHT22;13482;48.234;13.006;2022-12-16T19:19:26;2.70;76.50
25616;DHT22;13482;48.234;13.006;2022-12-16T19:22:12;2.70;76.50
25616;DHT22;13482;48.234;13.006;2022-12-16T19:24:57;2.70;76.50
25616;DHT22;13482;48.234;13.006;2022-12-16T19:27:43;2.70;76.50
25616;DHT22;13482;48.234;13.006;2022-12-16T19:30:28;2.70;76.60
25616;DHT22;13482;48.234;13.006;2022-12-16T19:33:14;2.70;76.60
25616;DHT22;13482;48.234;13.006;2022-12-16T19:35:59;2.70;76.60
25616;DHT22;13482;48.234;13.006;2022-12-16T19:38:45;2.70;76.50
25616;DHT22;13482;48.234;13.006;2022-12-16T19:41:30;2.70;76.60
25616;DHT22;13482;48.234;13.006;2022-12-16T19:44:17;2.70;76.60
25616;DHT22;13482;48.234;13.006;2022-12-16T19:47:03;2.70;76.60
25616;DHT22;13482;48.234;13.006;2022-12-16T19:49:48;2.70;76.70
25616;DHT22;13482;48.234;13.006;2022-12-16T19:52:34;2.70;76.70
25616;DHT22;13482;48.234;13.006;2022-12-16T19:55:21;2.70;76.60
25616;DHT22;13482;48.234;13.006;2022-12-16T19:58:07;2.70;76.60
25616;DHT22;13482;48.234;13.006;2022-12-16T20:00:53;2.70;76.60
25616;DHT22;13482;48.234;13.006;2022-12-16T20:03:39;2.70;76.60
25616;DHT22;13482;48.234;13.006;2022-12-16T20:06:24;2.70;76.60
25616;DHT22;13482;48.234;13.006;2022-12-16T20:09:10;2.70;76.60
25616;DHT22;13482;48.234;13.006;2022-12-16T20:11:56;2.70;76.60
25616;DHT22;13482;48.234;13.006;2022-12-16T20:14:42;2.60;76.70
25616;DHT22;13482;48.234;13.006;2022-12-16T20:17:27;2.60;76.70